createdAt,value
2018-12-12T00:00:24.721Z,25.57
2018-12-12T00:02:29.436Z,24.50
2018-12-12T00:04:42.849Z,25.00
2018-12-12T00:06:48.697Z,29.70
2018-12-12T00:08:53.114Z,23.93
2018-12-12T00:10:58.562Z,25.57
2018-12-12T00:13:02.895Z,25.60
2018-12-12T00:15:08.199Z,26.10
2018-12-12T00:17:12.861Z,29.00
2018-12-12T00:19:17.299Z,26.90
2018-12-12T00:21:22.073Z,24.63
2018-12-12T00:23:26.287Z,26.23
2018-12-12T00:25:30.537Z,31.13
2018-12-12T00:27:34.801Z,27.67
2018-12-12T00:29:40.295Z,31.43
2018-12-12T00:31:44.451Z,29.93
2018-12-12T00:33:48.798Z,25.73
2018-12-12T00:35:53.102Z,27.73
2018-12-12T00:37:59.038Z,26.90
2018-12-12T00:40:03.294Z,24.83
2018-12-12T00:42:07.921Z,29.47
2018-12-12T00:44:13.450Z,25.70
2018-12-12T00:46:20.980Z,28.43
2018-12-12T00:48:27.809Z,23.37
2018-12-12T00:50:32.945Z,27.13
2018-12-12T00:52:37.585Z,27.97
2018-12-12T00:54:42.288Z,28.87
2018-12-12T00:56:47.114Z,27.90
2018-12-12T00:58:51.396Z,28.87
2018-12-12T01:01:00.519Z,25.83
2018-12-12T01:03:04.810Z,25.27
2018-12-12T01:05:10.013Z,29.63
2018-12-12T01:07:14.718Z,30.07
2018-12-12T01:09:19.009Z,25.17
2018-12-12T01:11:28.665Z,25.20
2018-12-12T01:13:35.020Z,23.03
2018-12-12T01:15:39.558Z,23.00
2018-12-12T01:17:44.461Z,18.97
2018-12-12T01:19:48.755Z,27.87
2018-12-12T01:21:52.985Z,21.80
2018-12-12T01:23:57.217Z,20.37
2018-12-12T01:26:03.845Z,19.07
2018-12-12T01:28:08.060Z,20.23
2018-12-12T01:30:16.433Z,18.17
2018-12-12T01:32:22.086Z,17.27
2018-12-12T01:34:26.538Z,19.13
2018-12-12T01:36:31.077Z,18.07
2018-12-12T01:38:39.667Z,17.13
2018-12-12T01:40:44.641Z,18.93
2018-12-12T01:42:48.869Z,16.40
2018-12-12T01:44:53.502Z,20.00
2018-12-12T01:46:58.242Z,22.47
2018-12-12T01:49:02.525Z,18.67
2018-12-12T01:51:10.823Z,17.33
2018-12-12T01:53:16.237Z,16.80
2018-12-12T01:55:20.453Z,17.27
2018-12-12T01:57:25.450Z,18.13
2018-12-12T01:59:29.750Z,18.43
2018-12-12T02:01:35.687Z,23.27
2018-12-12T02:03:41.310Z,19.27
2018-12-12T02:05:45.638Z,16.93
2018-12-12T02:07:52.021Z,16.20
2018-12-12T02:09:57.185Z,16.17
2018-12-12T02:12:01.581Z,21.87
2018-12-12T02:14:05.943Z,15.53
2018-12-12T02:16:14.443Z,20.87
2018-12-12T02:18:19.176Z,19.17
2018-12-12T02:20:23.400Z,20.50
2018-12-12T02:22:27.642Z,18.77
2018-12-12T02:24:31.921Z,17.70
2018-12-12T02:26:36.623Z,14.07
2018-12-12T02:28:46.112Z,18.53
2018-12-12T02:30:51.735Z,19.10
2018-12-12T02:32:56.056Z,16.90
2018-12-12T02:35:00.738Z,21.30
2018-12-12T02:37:05.142Z,22.83
2018-12-12T02:39:09.570Z,17.20
2018-12-12T02:41:16.962Z,16.43
2018-12-12T02:43:21.308Z,15.77
2018-12-12T02:45:25.637Z,16.27
2018-12-12T02:47:35.184Z,17.57
2018-12-12T02:49:40.223Z,24.60
2018-12-12T02:51:45.464Z,19.50
2018-12-12T02:53:49.923Z,15.27
2018-12-12T02:55:54.158Z,18.30
2018-12-12T02:57:58.505Z,15.83
2018-12-12T03:00:05.007Z,21.53
2018-12-12T03:02:09.224Z,18.23
2018-12-12T03:04:13.677Z,16.30
2018-12-12T03:06:17.961Z,15.80
2018-12-12T03:08:22.350Z,21.47
2018-12-12T03:10:30.167Z,16.63
2018-12-12T03:12:35.659Z,17.70
2018-12-12T03:14:45.051Z,17.10
2018-12-12T03:16:50.344Z,21.73
2018-12-12T03:19:00.265Z,17.80
2018-12-12T03:21:05.731Z,23.30
2018-12-12T03:23:13.114Z,19.20
2018-12-12T03:25:27.626Z,20.73
2018-12-12T03:27:32.417Z,18.23
2018-12-12T03:29:37.758Z,16.30
2018-12-12T03:31:42.541Z,17.97
2018-12-12T03:33:48.265Z,19.03
2018-12-12T03:35:54.186Z,23.50
2018-12-12T03:38:00.683Z,20.30
2018-12-12T03:40:07.553Z,20.93
2018-12-12T03:42:11.914Z,20.67
2018-12-12T03:44:19.713Z,19.97
2018-12-12T03:46:24.917Z,18.60
2018-12-12T03:48:29.145Z,19.33
2018-12-12T03:50:38.123Z,16.30
2018-12-12T03:52:57.022Z,18.97
2018-12-12T03:55:06.753Z,19.63
2018-12-12T03:57:17.951Z,22.10
2018-12-12T03:59:25.577Z,18.97
2018-12-12T04:01:29.889Z,17.13
2018-12-12T04:03:36.984Z,18.97
2018-12-12T04:05:42.420Z,18.83
2018-12-12T04:07:48.264Z,20.10
2018-12-12T04:09:53.010Z,19.33
2018-12-12T04:11:57.861Z,18.70
2018-12-12T04:14:03.971Z,20.60
2018-12-12T04:16:08.597Z,23.00
2018-12-12T04:18:12.796Z,20.73
2018-12-12T04:20:17.157Z,24.90
2018-12-12T04:22:21.735Z,21.07
2018-12-12T04:24:27.119Z,18.37
2018-12-12T04:26:31.970Z,22.43
2018-12-12T04:28:42.362Z,23.83
2018-12-12T04:30:46.868Z,23.07
2018-12-12T04:32:51.113Z,19.20
2018-12-12T04:34:55.358Z,19.73
2018-12-12T04:36:59.706Z,22.97
2018-12-12T04:39:06.253Z,19.80
2018-12-12T04:41:11.031Z,23.43
2018-12-12T04:43:15.909Z,17.80
2018-12-12T04:45:22.788Z,21.40
2018-12-12T04:47:28.455Z,20.53
2018-12-12T04:49:32.788Z,25.80
2018-12-12T04:51:37.164Z,23.03
2018-12-12T04:53:41.420Z,26.23
2018-12-12T04:55:54.915Z,25.37
2018-12-12T04:58:00.908Z,20.20
2018-12-12T05:00:06.139Z,22.90
2018-12-12T05:02:10.601Z,22.47
2018-12-12T05:04:25.788Z,19.97
2018-12-12T05:06:30.153Z,25.47
2018-12-12T05:08:34.580Z,18.97
2018-12-12T05:10:38.953Z,16.50
2018-12-12T05:12:43.342Z,17.60
2018-12-12T05:14:47.784Z,16.13
2018-12-12T05:16:53.373Z,19.97
2018-12-12T05:18:57.595Z,13.90
2018-12-12T05:21:02.496Z,13.63
2018-12-12T05:23:06.846Z,11.83
2018-12-12T05:25:11.765Z,11.87
2018-12-12T05:27:16.854Z,11.73
2018-12-12T05:29:25.541Z,13.70
2018-12-12T05:31:29.736Z,11.77
2018-12-12T05:33:36.317Z,11.53
2018-12-12T05:35:41.876Z,8.43
2018-12-12T05:37:51.817Z,12.90
2018-12-12T05:39:54.713Z,12.30
2018-12-12T05:42:02.441Z,9.63
2018-12-12T05:44:07.457Z,11.40
2018-12-12T05:46:12.230Z,11.77
2018-12-12T05:48:16.950Z,13.23
2018-12-12T05:50:21.165Z,11.50
2018-12-12T05:52:25.340Z,10.83
2018-12-12T05:54:32.531Z,12.20
2018-12-12T05:56:38.687Z,10.20
2018-12-12T05:58:44.053Z,11.77
2018-12-12T06:00:54.416Z,10.17
2018-12-12T06:02:59.832Z,9.17
2018-12-12T06:05:06.509Z,9.87
2018-12-12T06:07:11.598Z,9.90
2018-12-12T06:09:15.828Z,8.23
2018-12-12T06:11:20.056Z,8.97
2018-12-12T06:13:30.200Z,7.07
2018-12-12T06:15:35.097Z,6.73
2018-12-12T06:17:39.362Z,8.70
2018-12-12T06:19:46.045Z,7.50
2018-12-12T06:21:50.409Z,6.60
2018-12-12T06:23:55.520Z,6.60
2018-12-12T06:26:02.006Z,7.57
2018-12-12T06:28:07.237Z,8.20
2018-12-12T06:30:13.496Z,8.00
2018-12-12T06:32:18.037Z,5.50
2018-12-12T06:34:23.349Z,4.30
2018-12-12T06:36:28.650Z,6.40
2018-12-12T06:38:33.336Z,4.07
2018-12-12T06:40:38.665Z,4.03
2018-12-12T06:42:42.934Z,3.77
2018-12-12T06:44:49.638Z,5.27
2018-12-12T06:46:57.445Z,4.07
2018-12-12T06:49:01.764Z,4.30
2018-12-12T06:51:08.006Z,3.33
2018-12-12T06:53:14.724Z,3.17
2018-12-12T06:55:20.176Z,2.97
2018-12-12T06:57:25.945Z,2.60
2018-12-12T06:59:31.315Z,3.93
2018-12-12T07:01:41.837Z,3.27
2018-12-12T07:03:47.040Z,3.37
2018-12-12T07:05:53.717Z,4.37
2018-12-12T07:07:57.971Z,2.27
2018-12-12T07:10:02.317Z,4.50
2018-12-12T07:12:07.168Z,3.50
2018-12-12T07:14:12.967Z,3.80
2018-12-12T07:16:19.245Z,2.73
2018-12-12T07:18:25.068Z,4.13
2018-12-12T07:20:34.873Z,5.60
2018-12-12T07:22:39.770Z,3.40
2018-12-12T07:24:44.119Z,4.00
2018-12-12T07:26:48.654Z,3.93
2018-12-12T07:28:53.033Z,5.57
2018-12-12T07:30:57.880Z,6.30
2018-12-12T07:33:07.789Z,4.00
2018-12-12T07:35:20.501Z,4.73
2018-12-12T07:37:24.787Z,3.80
2018-12-12T07:39:29.692Z,3.70
2018-12-12T07:41:37.787Z,5.53
2018-12-12T07:43:42.109Z,4.17
2018-12-12T07:45:48.966Z,4.33
2018-12-12T07:47:53.218Z,4.33
2018-12-12T07:49:58.474Z,6.97
2018-12-12T07:52:03.420Z,7.17
2018-12-12T07:54:13.362Z,6.73
2018-12-12T07:56:17.673Z,7.60
2018-12-12T07:58:23.446Z,7.07
2018-12-12T08:02:41.880Z,8.50
2018-12-12T08:04:50.608Z,6.00
2018-12-12T08:06:58.629Z,7.90
2018-12-12T08:09:03.051Z,5.60
2018-12-12T08:11:14.966Z,9.30
2018-12-12T08:13:29.053Z,9.23
2018-12-12T08:15:34.695Z,13.07
2018-12-12T08:17:40.358Z,9.20
2018-12-12T08:19:45.150Z,5.40
2018-12-12T08:21:49.871Z,6.43
2018-12-12T08:23:56.985Z,6.90
2018-12-12T08:26:01.985Z,7.93
2018-12-12T08:28:06.601Z,6.27
2018-12-12T08:30:15.212Z,9.03
2018-12-12T08:32:21.970Z,5.97
2018-12-12T08:34:27.010Z,6.90
2018-12-12T08:38:40.148Z,6.03
2018-12-12T08:40:48.630Z,6.77
2018-12-12T08:42:54.420Z,9.17
2018-12-12T08:44:58.842Z,8.20
2018-12-12T08:47:12.033Z,8.80
2018-12-12T08:49:17.853Z,6.23
2018-12-12T08:51:23.020Z,6.50
2018-12-12T08:53:32.320Z,9.10
2018-12-12T08:55:42.334Z,8.20
2018-12-12T08:57:47.999Z,7.30
2018-12-12T09:00:06.712Z,9.03
2018-12-12T09:02:15.397Z,9.33
2018-12-12T09:04:25.042Z,6.83
2018-12-12T09:06:30.709Z,7.27
2018-12-12T09:08:36.585Z,7.63
2018-12-12T09:10:42.153Z,8.97
2018-12-12T09:12:52.331Z,6.20
2018-12-12T09:15:00.931Z,8.43
2018-12-12T09:17:09.857Z,9.60
2018-12-12T09:19:17.277Z,7.93
2018-12-12T09:21:22.354Z,10.50
2018-12-12T09:23:28.721Z,10.30
2018-12-12T09:25:40.693Z,11.93
2018-12-12T09:27:48.306Z,12.63
2018-12-12T09:29:53.508Z,13.20
2018-12-12T09:32:06.094Z,8.83
2018-12-12T09:34:10.524Z,10.27
2018-12-12T09:36:15.537Z,12.03
2018-12-12T09:38:22.703Z,11.17
2018-12-12T09:40:29.353Z,10.57
2018-12-12T09:42:35.134Z,8.57
2018-12-12T09:44:39.969Z,10.43
2018-12-12T09:46:44.298Z,10.87
2018-12-12T09:48:48.739Z,12.07
2018-12-12T09:53:06.399Z,10.43
2018-12-12T09:55:10.996Z,9.90
2018-12-12T09:57:17.607Z,8.13
2018-12-12T09:59:23.417Z,8.20
2018-12-12T10:01:30.749Z,12.40
2018-12-12T10:03:35.973Z,11.37
2018-12-12T10:05:43.429Z,10.70
2018-12-12T10:08:17.676Z,9.43
2018-12-12T10:10:22.986Z,9.80
2018-12-12T10:12:33.383Z,11.80
2018-12-12T10:14:40.508Z,10.33
2018-12-12T10:16:49.505Z,8.10
2018-12-12T10:18:55.186Z,9.83
2018-12-12T10:21:01.000Z,11.00
2018-12-12T10:23:09.798Z,13.87
2018-12-12T10:25:15.214Z,10.90
2018-12-12T10:27:28.377Z,11.03
2018-12-12T10:29:32.677Z,8.57
2018-12-12T10:31:37.525Z,7.23
2018-12-12T10:33:42.256Z,11.87
2018-12-12T10:35:49.626Z,6.73
2018-12-12T10:37:58.481Z,7.40
2018-12-12T10:40:05.671Z,8.07
2018-12-12T10:42:10.794Z,7.00
2018-12-12T10:44:15.027Z,6.67
2018-12-12T10:46:29.575Z,11.77
2018-12-12T10:48:35.174Z,6.23
2018-12-12T10:50:43.163Z,6.10
2018-12-12T10:52:56.506Z,8.60
2018-12-12T10:55:00.793Z,7.97
2018-12-12T10:57:06.796Z,8.03
2018-12-12T10:59:15.612Z,8.13
2018-12-12T11:01:31.977Z,8.47
2018-12-12T11:03:44.349Z,11.07
2018-12-12T11:05:50.211Z,7.97
2018-12-12T11:07:56.076Z,8.37
2018-12-12T11:10:00.408Z,8.80
2018-12-12T11:12:12.045Z,7.97
2018-12-12T11:14:16.702Z,7.17
2018-12-12T11:16:23.815Z,7.70
2018-12-12T11:18:33.232Z,10.07
2018-12-12T11:20:45.682Z,11.37
2018-12-12T11:22:53.285Z,9.83
2018-12-12T11:25:14.215Z,12.97
2018-12-12T11:27:20.393Z,8.57
2018-12-12T11:29:24.695Z,10.17
2018-12-12T11:31:31.362Z,8.80
2018-12-12T11:33:37.473Z,9.53
2018-12-12T11:35:49.365Z,7.57
2018-12-12T11:37:58.876Z,10.43
2018-12-12T11:40:03.253Z,8.23
2018-12-12T11:42:11.021Z,7.10
2018-12-12T11:44:23.217Z,9.60
2018-12-12T11:46:29.035Z,7.87
2018-12-12T11:48:36.121Z,9.57
2018-12-12T11:50:46.118Z,9.43
2018-12-12T11:52:52.243Z,7.37
2018-12-12T11:55:02.088Z,7.10
2018-12-12T11:57:09.588Z,9.27
2018-12-12T11:59:15.115Z,8.40
2018-12-12T12:03:37.111Z,7.27
2018-12-12T12:05:41.871Z,6.20
2018-12-12T12:07:46.872Z,11.80
2018-12-12T12:12:11.695Z,9.10
2018-12-12T12:14:24.776Z,9.83
2018-12-12T12:16:36.594Z,8.27
2018-12-12T12:18:52.613Z,6.70
2018-12-12T12:20:58.089Z,6.63
2018-12-12T12:23:08.812Z,5.93
2018-12-12T12:25:16.833Z,7.00
2018-12-12T12:27:21.136Z,6.83
2018-12-12T12:29:28.873Z,5.97
2018-12-12T12:31:35.200Z,7.63
2018-12-12T12:33:42.474Z,6.60
2018-12-12T12:35:51.699Z,7.50
2018-12-12T12:38:00.925Z,5.30
2018-12-12T12:40:07.711Z,6.20
2018-12-12T12:42:18.077Z,5.60
2018-12-12T12:44:35.068Z,5.60
2018-12-12T12:46:44.645Z,5.43
2018-12-12T12:48:53.231Z,6.30
2018-12-12T12:50:58.459Z,5.80
2018-12-12T12:53:06.878Z,7.10
2018-12-12T12:55:20.808Z,7.73
2018-12-12T12:57:25.078Z,5.80
2018-12-12T12:59:29.462Z,6.63
2018-12-12T13:01:37.236Z,5.50
2018-12-12T13:03:41.968Z,7.77
2018-12-12T13:05:46.386Z,8.67
2018-12-12T13:07:52.181Z,5.87
2018-12-12T13:09:57.526Z,5.77
2018-12-12T13:12:02.101Z,6.47
2018-12-12T13:14:08.336Z,5.80
2018-12-12T13:16:15.641Z,7.13
2018-12-12T13:18:21.335Z,7.00
2018-12-12T13:20:26.490Z,7.27
2018-12-12T13:22:33.999Z,6.77
2018-12-12T13:24:45.424Z,5.17
2018-12-12T13:26:53.686Z,5.83
2018-12-12T13:28:58.875Z,6.17
2018-12-12T13:31:03.338Z,6.90
2018-12-12T13:33:10.787Z,8.23
2018-12-12T13:35:16.417Z,7.40
2018-12-12T13:37:20.945Z,5.60
2018-12-12T13:39:32.392Z,5.93
2018-12-12T13:41:36.796Z,6.77
2018-12-12T13:43:45.724Z,8.27
2018-12-12T13:45:50.886Z,6.03
2018-12-12T13:47:57.497Z,6.00
2018-12-12T13:50:03.989Z,5.33
2018-12-12T13:52:12.708Z,5.83
2018-12-12T13:54:18.450Z,5.13
2018-12-12T13:56:23.742Z,5.80
2018-12-12T13:58:36.867Z,6.07
2018-12-12T14:00:46.586Z,7.10
2018-12-12T14:03:06.807Z,7.57
2018-12-12T14:05:12.742Z,6.77
2018-12-12T14:07:17.198Z,6.10
2018-12-12T14:09:24.579Z,6.07
2018-12-12T14:11:31.909Z,7.47
2018-12-12T14:13:36.405Z,5.93
2018-12-12T14:15:43.225Z,5.57
2018-12-12T14:17:48.691Z,5.07
2018-12-12T14:19:54.912Z,5.03
2018-12-12T14:22:03.113Z,5.17
2018-12-12T14:24:08.535Z,5.20
2018-12-12T14:26:16.104Z,5.43
2018-12-12T14:28:26.103Z,4.43
2018-12-12T14:30:30.495Z,6.33
2018-12-12T14:32:36.906Z,4.80
2018-12-12T14:34:42.575Z,5.23
2018-12-12T14:36:47.727Z,5.03
2018-12-12T14:38:53.104Z,5.07
2018-12-12T14:41:03.969Z,5.20
2018-12-12T14:43:08.690Z,6.60
2018-12-12T14:45:15.899Z,6.03
2018-12-12T14:47:20.817Z,6.00
2018-12-12T14:49:26.020Z,6.17
2018-12-12T14:51:30.406Z,5.30
2018-12-12T14:53:35.772Z,5.87
2018-12-12T14:55:40.386Z,5.13
2018-12-12T14:57:46.562Z,6.77
2018-12-12T14:59:52.464Z,6.80
2018-12-12T15:02:13.833Z,5.77
2018-12-12T15:04:26.675Z,6.73
2018-12-12T15:06:31.308Z,7.17
2018-12-12T15:08:38.629Z,5.40
2018-12-12T15:10:46.268Z,5.77
2018-12-12T15:12:52.311Z,5.63
2018-12-12T15:14:56.621Z,5.23
2018-12-12T15:17:07.958Z,5.73
2018-12-12T15:19:15.053Z,5.33
2018-12-12T15:21:25.698Z,5.63
2018-12-12T15:23:28.446Z,6.37
2018-12-12T15:25:36.034Z,8.27
2018-12-12T15:27:42.004Z,6.13
2018-12-12T15:29:47.306Z,8.17
2018-12-12T15:31:54.178Z,6.33
2018-12-12T15:33:58.684Z,5.97
2018-12-12T15:36:03.445Z,6.37
2018-12-12T15:38:07.829Z,6.80
2018-12-12T15:40:12.269Z,6.90
2018-12-12T15:42:16.712Z,7.63
2018-12-12T15:44:24.144Z,8.80
2018-12-12T15:46:33.809Z,7.33
2018-12-12T15:48:46.992Z,7.17
2018-12-12T15:50:51.519Z,9.57
2018-12-12T15:52:59.189Z,7.10
2018-12-12T15:55:05.493Z,6.53
2018-12-12T15:57:10.721Z,6.97
2018-12-12T15:59:16.109Z,7.07
2018-12-12T16:01:20.561Z,7.87
2018-12-12T16:03:25.050Z,7.50
2018-12-12T16:05:30.370Z,6.93
2018-12-12T16:07:35.533Z,6.90
2018-12-12T16:09:40.001Z,7.67
2018-12-12T16:11:47.661Z,6.97
2018-12-12T16:14:03.249Z,8.90
2018-12-12T16:16:10.047Z,8.30
2018-12-12T16:18:22.185Z,8.07
2018-12-12T16:20:28.917Z,8.57
2018-12-12T16:22:33.447Z,8.03
2018-12-12T16:24:41.828Z,7.40
2018-12-12T16:26:47.048Z,6.87
2018-12-12T16:28:58.741Z,7.27
2018-12-12T16:31:05.907Z,7.10
2018-12-12T16:33:11.190Z,7.83
2018-12-12T16:35:16.412Z,8.20
2018-12-12T16:37:21.440Z,6.80
2018-12-12T16:39:27.437Z,7.17
2018-12-12T16:41:33.372Z,6.47
2018-12-12T16:43:40.103Z,7.07
2018-12-12T16:45:46.699Z,7.90
2018-12-12T16:47:51.072Z,7.50
2018-12-12T16:49:58.486Z,8.23
2018-12-12T16:52:05.589Z,8.00
2018-12-12T16:54:16.874Z,7.60
2018-12-12T16:56:22.475Z,7.13
2018-12-12T16:58:27.363Z,8.27
2018-12-12T17:00:35.332Z,7.60
2018-12-12T17:02:41.192Z,8.50
2018-12-12T17:04:48.132Z,7.50
2018-12-12T17:06:52.551Z,8.50
2018-12-12T17:09:01.326Z,6.87
2018-12-12T17:11:09.140Z,7.10
2018-12-12T17:13:13.832Z,7.67
2018-12-12T17:15:23.663Z,6.37
2018-12-12T17:17:29.746Z,8.63
2018-12-12T17:19:35.696Z,7.13
2018-12-12T17:21:41.561Z,8.03
2018-12-12T17:23:51.721Z,6.40
2018-12-12T17:25:58.780Z,7.13
2018-12-12T17:28:05.766Z,6.57
2018-12-12T17:30:15.055Z,8.30
2018-12-12T17:32:19.340Z,6.27
2018-12-12T17:34:24.099Z,6.03
2018-12-12T17:36:29.065Z,6.13
2018-12-12T17:38:35.086Z,5.73
2018-12-12T17:40:40.952Z,6.03
2018-12-12T17:42:45.268Z,5.93
2018-12-12T17:44:51.236Z,6.77
2018-12-12T17:46:56.966Z,5.00
2018-12-12T17:49:02.065Z,5.40
2018-12-12T17:51:07.572Z,5.93
2018-12-12T17:53:16.687Z,6.47
2018-12-12T17:55:21.817Z,5.20
2018-12-12T17:57:29.205Z,5.77
2018-12-12T17:59:36.185Z,5.53
2018-12-12T18:01:42.456Z,5.90
2018-12-12T18:03:49.965Z,6.40
2018-12-12T18:05:54.757Z,5.37
2018-12-12T18:07:59.963Z,5.20
2018-12-12T18:10:05.445Z,7.10
2018-12-12T18:12:12.197Z,4.97
2018-12-12T18:14:18.358Z,4.73
2018-12-12T18:16:26.980Z,4.20
2018-12-12T18:18:33.530Z,5.23
2018-12-12T18:20:39.988Z,5.57
2018-12-12T18:22:44.666Z,4.77
2018-12-12T18:24:50.843Z,5.00
2018-12-12T18:26:55.908Z,5.80
2018-12-12T18:31:50.954Z,5.73
2018-12-12T18:33:55.632Z,4.40
2018-12-12T18:35:59.855Z,4.43
2018-12-12T18:38:04.994Z,4.83
2018-12-12T18:40:11.738Z,4.37
2018-12-12T18:42:17.313Z,4.87
2018-12-12T18:44:26.012Z,4.87
2018-12-12T18:46:49.873Z,5.13
2018-12-12T18:48:57.410Z,4.20
2018-12-12T18:51:03.396Z,3.97
2018-12-12T18:53:10.937Z,4.53
2018-12-12T18:55:17.102Z,4.83
2018-12-12T18:57:21.623Z,4.70
2018-12-12T18:59:28.732Z,4.50
2018-12-12T19:01:33.487Z,4.97
2018-12-12T19:03:37.862Z,4.80
2018-12-12T19:05:45.161Z,4.83
2018-12-12T19:07:51.183Z,4.67
2018-12-12T19:09:58.332Z,4.50
2018-12-12T19:12:04.044Z,4.87
2018-12-12T19:14:08.448Z,4.77
2018-12-12T19:16:13.039Z,4.60
2018-12-12T19:18:19.666Z,6.67
2018-12-12T19:20:24.157Z,4.83
2018-12-12T19:22:28.982Z,4.53
2018-12-12T19:24:34.971Z,4.90
2018-12-12T19:26:39.552Z,5.87
2018-12-12T19:28:45.647Z,4.83
2018-12-12T19:30:51.463Z,4.77
2018-12-12T19:32:59.159Z,5.20
2018-12-12T19:35:03.987Z,4.67
2018-12-12T19:37:13.002Z,5.60
2018-12-12T19:39:19.373Z,5.73
2018-12-12T19:41:23.842Z,5.43
2018-12-12T19:43:30.493Z,5.13
2018-12-12T19:45:34.733Z,5.33
2018-12-12T19:47:38.942Z,5.30
2018-12-12T19:49:43.777Z,5.57
2018-12-12T19:51:50.054Z,5.93
2018-12-12T19:53:57.207Z,5.37
2018-12-12T19:56:03.584Z,5.57
2018-12-12T19:58:08.323Z,4.93
2018-12-12T20:00:18.513Z,5.60
2018-12-12T20:02:23.724Z,5.27
2018-12-12T20:04:30.347Z,5.77
2018-12-12T20:06:37.756Z,5.33
2018-12-12T20:08:45.276Z,5.30
2018-12-12T20:10:55.091Z,5.63
2018-12-12T20:13:03.443Z,6.47
2018-12-12T20:15:16.766Z,6.07
2018-12-12T20:17:24.383Z,5.47
2018-12-12T20:19:28.835Z,6.17
2018-12-12T20:21:35.207Z,5.80
2018-12-12T20:23:42.847Z,5.70
2018-12-12T20:25:48.823Z,5.90
2018-12-12T20:27:54.748Z,5.57
2018-12-12T20:30:00.428Z,5.83
2018-12-12T20:32:11.369Z,6.50
2018-12-12T20:34:17.178Z,6.07
2018-12-12T20:36:26.957Z,5.67
2018-12-12T20:38:35.509Z,6.23
2018-12-12T20:40:46.017Z,7.03
2018-12-12T20:42:52.333Z,6.23
2018-12-12T20:45:01.266Z,6.10
2018-12-12T20:47:06.409Z,6.70
2018-12-12T20:49:12.787Z,7.17
2018-12-12T20:51:17.501Z,7.10
2018-12-12T20:55:36.438Z,7.13
2018-12-12T20:57:41.609Z,7.33
2018-12-12T20:59:53.455Z,6.97
2018-12-12T21:01:59.636Z,7.80
2018-12-12T21:04:06.702Z,6.83
2018-12-12T21:06:12.761Z,8.03
2018-12-12T21:08:18.053Z,7.57
2018-12-12T21:10:23.585Z,9.83
2018-12-12T21:12:33.734Z,7.70
2018-12-12T21:14:38.232Z,7.30
2018-12-12T21:16:47.563Z,8.80
2018-12-12T21:18:55.473Z,7.00
2018-12-12T21:21:06.505Z,7.37
2018-12-12T21:23:17.452Z,8.37
2018-12-12T21:25:25.290Z,7.87
2018-12-12T21:27:31.376Z,10.03
2018-12-12T21:29:36.025Z,7.53
2018-12-12T21:31:47.271Z,8.27
2018-12-12T21:33:54.724Z,9.70
2018-12-12T21:36:00.923Z,8.90
2018-12-12T21:38:06.586Z,8.63
2018-12-12T21:42:20.487Z,10.33
2018-12-12T21:44:27.232Z,9.67
2018-12-12T21:46:32.299Z,8.70
2018-12-12T21:48:37.343Z,8.37
2018-12-12T21:50:43.531Z,9.33
2018-12-12T21:52:48.988Z,9.40
2018-12-12T21:54:58.278Z,8.80
2018-12-12T21:57:03.436Z,9.70
2018-12-12T21:59:10.648Z,11.40
2018-12-12T22:01:16.277Z,10.00
2018-12-12T22:03:21.007Z,8.87
2018-12-12T22:05:27.085Z,9.93
2018-12-12T22:07:34.232Z,10.07
2018-12-12T22:09:38.540Z,10.43
2018-12-12T22:11:44.787Z,11.53
2018-12-12T22:13:51.156Z,10.20
2018-12-12T22:15:55.609Z,12.83
2018-12-12T22:18:01.915Z,12.40
2018-12-12T22:20:06.605Z,11.50
2018-12-12T22:22:12.006Z,11.53
2018-12-12T22:24:22.168Z,11.37
2018-12-12T22:26:29.624Z,11.63
2018-12-12T22:28:36.433Z,10.67
2018-12-12T22:30:44.699Z,9.40
2018-12-12T22:32:49.096Z,11.17
2018-12-12T22:34:53.604Z,10.67
2018-12-12T22:36:58.897Z,9.90
2018-12-12T22:39:06.723Z,11.67
2018-12-12T22:41:11.318Z,12.00
2018-12-12T22:43:15.823Z,11.40
2018-12-12T22:45:21.896Z,11.63
2018-12-12T22:47:26.307Z,12.93
2018-12-12T22:49:32.675Z,10.77
2018-12-12T22:51:37.570Z,9.93
2018-12-12T22:53:46.128Z,10.67
2018-12-12T22:55:50.473Z,11.03
2018-12-12T22:57:56.119Z,10.93
2018-12-12T23:00:01.287Z,9.97
2018-12-12T23:02:07.095Z,10.87
2018-12-12T23:04:14.084Z,10.20
2018-12-12T23:06:20.562Z,10.97
2018-12-12T23:08:25.195Z,12.93
2018-12-12T23:10:30.546Z,11.50
2018-12-12T23:12:36.011Z,10.50
2018-12-12T23:14:42.797Z,9.50
2018-12-12T23:16:47.132Z,11.57
2018-12-12T23:18:52.764Z,10.50
2018-12-12T23:20:59.988Z,11.53
2018-12-12T23:23:04.362Z,12.07
2018-12-12T23:25:09.329Z,11.30
2018-12-12T23:27:13.899Z,12.27
2018-12-12T23:29:19.316Z,11.87
2018-12-12T23:31:23.543Z,10.67
2018-12-12T23:33:28.038Z,12.70
2018-12-12T23:35:33.094Z,12.30
2018-12-12T23:37:37.596Z,11.90
2018-12-12T23:39:41.967Z,11.77
2018-12-12T23:41:47.313Z,13.57
2018-12-12T23:43:51.712Z,14.00
2018-12-12T23:45:56.048Z,15.43
2018-12-12T23:48:01.648Z,14.10
2018-12-12T23:50:07.458Z,13.77
2018-12-12T23:52:12.914Z,13.40
2018-12-12T23:54:17.289Z,12.60
2018-12-12T23:56:28.383Z,14.17
2018-12-12T23:58:33.576Z,13.97
